Time;durP1;ratioP1;P1;durP2;ratioP2;P2;SDS_P1;SDS_P2;PMS_P1;PMS_P2;Temp;Humidity;BMP_temperature;BMP_pressure;BME280_temperature;BME280_humidity;BME280_pressure;Samples;Min_cycle;Max_cycle;Signal;HPM_P1;HPM_P2
2024/01/11 00:00:46;;;;;;;;;;;;;;;3.91;45.84;103453.41;5111584;28;20463;-70
2024/01/11 00:03:11;;;;;;;;;;;;;;;3.83;46.31;103462.97;5092171;28;20420;-71
2024/01/11 00:05:36;;;;;;;;;;;;;;;3.61;46.40;103455.78;5103185;28;19927;-70
2024/01/11 00:08:02;;;;;;;;;;;;;;;3.92;46.36;103451.63;5111367;28;19919;-70
2024/01/11 00:10:27;;;;;;;;;;;;;;;4.03;45.76;103441.84;5111492;28;19911;-70
2024/01/11 00:12:53;;;;;;;;;;;;;;;4.10;45.52;103452.84;5111505;28;19920;-70
2024/01/11 00:15:18;;;;;;;;;;;;;;;4.01;44.79;103450.94;5108742;28;19915;-69
2024/01/11 00:17:43;;;;;;;;;;;;;;;3.84;46.31;103444.22;5110994;28;19912;-70
2024/01/11 00:20:09;;;;;;;;;;;;;;;3.59;47.36;103460.38;5111466;28;19912;-69
2024/01/11 00:22:34;;;;;;;;;;;;;;;3.67;46.98;103454.47;5111739;28;19916;-62
2024/01/11 00:25:00;;;;;;;;;;;;;;;3.88;47.39;103450.16;5093239;28;19927;-62
2024/01/11 00:27:25;;;;;;;;;;;;;;;3.65;46.87;103449.28;5112145;28;20375;-63
2024/01/11 00:29:50;;;;;;;;;;;;;;;3.55;47.31;103443.81;5111612;28;19916;-62
2024/01/11 00:32:15;;;;;;;;;;;;;;;3.53;47.13;103452.84;5111377;28;19912;-62
2024/01/11 00:34:41;;;;;;;;;;;;;;;3.45;47.31;103455.22;5111740;28;19922;-65
2024/01/11 00:37:06;;;;;;;;;;;;;;;3.89;46.39;103452.69;5111640;28;20345;-63
2024/01/11 00:39:31;;;;;;;;;;;;;;;3.95;45.93;103446.06;5111425;28;19912;-63
2024/01/11 00:41:56;;;;;;;;;;;;;;;3.95;46.40;103446.91;5111442;28;19994;-65
2024/01/11 00:44:22;;;;;;;;;;;;;;;3.78;46.25;103443.84;5111306;28;20283;-62
2024/01/11 00:46:47;;;;;;;;;;;;;;;3.88;45.96;103435.06;5111890;28;20354;-62
2024/01/11 00:49:12;;;;;;;;;;;;;;;3.94;46.46;103441.72;5111076;28;19916;-61
2024/01/11 00:51:37;;;;;;;;;;;;;;;3.92;46.56;103438.31;5097516;28;19966;-61
2024/01/11 00:54:02;;;;;;;;;;;;;;;3.86;45.56;103438.78;5090859;28;20386;-62
2024/01/11 00:56:28;;;;;;;;;;;;;;;3.51;46.39;103445.00;5090820;28;20387;-62
2024/01/11 00:58:53;;;;;;;;;;;;;;;3.39;48.01;103432.63;5091178;28;19916;-61
2024/01/11 01:01:18;;;;;;;;;;;;;;;3.82;46.64;103434.66;5094706;28;20387;-64
2024/01/11 01:03:44;;;;;;;;;;;;;;;3.85;46.49;103440.63;5110981;28;19919;-63
2024/01/11 01:06:09;;;;;;;;;;;;;;;3.88;46.23;103445.69;5110599;28;20002;-62
2024/01/11 01:08:34;;;;;;;;;;;;;;;3.72;46.79;103449.63;5111128;28;20002;-61
2024/01/11 01:10:59;;;;;;;;;;;;;;;3.73;47.42;103451.34;5111245;28;19911;-61
2024/01/11 01:13:25;;;;;;;;;;;;;;;3.95;45.71;103456.72;5110785;28;19916;-62
2024/01/11 01:15:50;;;;;;;;;;;;;;;3.72;46.02;103460.25;5110926;28;19923;-62
2024/01/11 01:18:15;;;;;;;;;;;;;;;3.50;47.09;103461.03;5110798;28;19919;-63
2024/01/11 01:20:40;;;;;;;;;;;;;;;3.51;46.76;103466.25;5109356;28;19912;-63
2024/01/11 01:23:06;;;;;;;;;;;;;;;3.39;47.78;103459.19;5110709;28;19950;-63
2024/01/11 01:25:32;;;;;;;;;;;;;;;3.81;46.93;103471.06;5110409;28;20309;-62
2024/01/11 01:27:59;;;;;;;;;;;;;;;3.80;46.72;103464.03;5110232;28;19920;-62
2024/01/11 01:30:24;;;;;;;;;;;;;;;3.74;46.36;103463.66;5110776;28;19911;-63
2024/01/11 01:32:49;;;;;;;;;;;;;;;3.65;46.30;103462.56;5093677;28;20544;-62
2024/01/11 01:35:14;;;;;;;;;;;;;;;3.66;45.95;103456.25;5089770;28;19912;-63
2024/01/11 01:37:40;;;;;;;;;;;;;;;3.69;46.38;103465.81;5090662;28;20362;-63
2024/01/11 01:40:07;;;;;;;;;;;;;;;3.72;46.56;103471.75;5090195;28;19965;-62
2024/01/11 01:42:32;;;;;;;;;;;;;;;3.40;47.38;103470.69;5089697;28;19923;-63
2024/01/11 01:44:57;;;;;;;;;;;;;;;3.53;47.68;103480.28;5090029;28;20301;-63
2024/01/11 01:47:23;;;;;;;;;;;;;;;3.26;47.79;103484.16;5090251;28;20344;-63
2024/01/11 01:49:48;;;;;;;;;;;;;;;3.46;47.03;103486.16;5090103;28;20323;-64
2024/01/11 01:52:15;;;;;;;;;;;;;;;3.20;48.04;103479.28;5108875;28;19912;-62
2024/01/11 01:54:40;;;;;;;;;;;;;;;3.64;46.28;103476.81;5110464;28;19934;-61
2024/01/11 01:57:07;;;;;;;;;;;;;;;3.38;47.99;103477.94;5110096;28;19916;-60
2024/01/11 01:59:32;;;;;;;;;;;;;;;3.41;47.65;103480.34;5110265;28;19972;-63
2024/01/11 02:01:58;;;;;;;;;;;;;;;3.54;46.73;103471.34;5110435;28;20641;-62
2024/01/11 02:04:23;;;;;;;;;;;;;;;3.77;46.17;103469.59;5109722;28;19916;-61
2024/01/11 02:06:49;;;;;;;;;;;;;;;3.72;45.37;103468.25;5110048;28;19916;-63
2024/01/11 02:09:15;;;;;;;;;;;;;;;3.69;46.17;103464.03;5110133;28;19915;-63
2024/01/11 02:11:41;;;;;;;;;;;;;;;3.71;45.52;103464.75;5109970;28;20040;-63
2024/01/11 02:14:07;;;;;;;;;;;;;;;3.63;46.09;103461.81;5109752;28;20537;-63
2024/01/11 02:16:32;;;;;;;;;;;;;;;3.51;46.58;103468.91;5110709;28;19914;-62
2024/01/11 02:18:57;;;;;;;;;;;;;;;3.34;46.08;103469.31;5109968;28;19915;-61
2024/01/11 02:21:23;;;;;;;;;;;;;;;3.44;46.42;103477.44;5109843;28;20355;-62
2024/01/11 02:24:02;;;;;;;;;;;;;;;3.44;46.69;103472.13;5109329;28;19919;-62
2024/01/11 02:26:27;;;;;;;;;;;;;;;3.49;46.64;103470.84;5110012;28;19924;-63
2024/01/11 02:28:53;;;;;;;;;;;;;;;3.09;47.38;103477.41;5109974;28;20279;-62
2024/01/11 02:31:18;;;;;;;;;;;;;;;3.48;47.11;103470.94;5106392;28;20379;-63
2024/01/11 02:33:43;;;;;;;;;;;;;;;3.36;47.89;103472.69;5093279;28;19962;-61
2024/01/11 02:36:08;;;;;;;;;;;;;;;3.47;47.07;103467.44;5091526;28;19959;-61
2024/01/11 02:38:34;;;;;;;;;;;;;;;3.37;47.12;103471.75;5093354;28;20287;-60
2024/01/11 02:41:00;;;;;;;;;;;;;;;3.04;47.96;103476.03;5092449;28;20371;-61
2024/01/11 02:43:25;;;;;;;;;;;;;;;3.32;47.67;103479.19;5093077;28;19912;-61
2024/01/11 02:45:54;;;;;;;;;;;;;;;3.46;47.13;103478.19;5093402;28;20414;-62
2024/01/11 02:48:19;;;;;;;;;;;;;;;3.33;47.74;103461.47;5093462;28;20384;-62
2024/01/11 02:50:44;;;;;;;;;;;;;;;2.96;48.45;103460.66;5099821;28;19916;-61
2024/01/11 02:53:10;;;;;;;;;;;;;;;3.39;47.29;103468.97;5113633;28;19915;-62
2024/01/11 02:55:35;;;;;;;;;;;;;;;3.30;48.15;103469.66;5113828;28;19907;-62
2024/01/11 02:58:00;;;;;;;;;;;;;;;3.34;48.00;103469.31;5113505;28;19923;-61
2024/01/11 03:00:25;;;;;;;;;;;;;;;3.29;47.81;103481.25;5113033;28;19912;-61
2024/01/11 03:02:51;;;;;;;;;;;;;;;3.21;47.88;103475.66;5113070;28;19916;-62
2024/01/11 03:05:16;;;;;;;;;;;;;;;3.19;48.03;103475.75;5113243;28;19912;-62
2024/01/11 03:07:42;;;;;;;;;;;;;;;3.17;47.79;103476.81;5113841;28;19934;-61
2024/01/11 03:10:07;;;;;;;;;;;;;;;3.21;47.87;103479.16;5113385;28;19930;-62
2024/01/11 03:12:32;;;;;;;;;;;;;;;2.95;48.67;103482.03;5113071;28;20363;-62
2024/01/11 03:14:57;;;;;;;;;;;;;;;3.07;48.47;103487.28;5112990;28;19915;-62
2024/01/11 03:17:23;;;;;;;;;;;;;;;3.07;48.89;103471.34;5113339;28;19952;-62
2024/01/11 03:19:48;;;;;;;;;;;;;;;3.22;48.16;103472.03;5113232;28;20457;-61
2024/01/11 03:22:13;;;;;;;;;;;;;;;3.20;48.03;103473.97;5112832;28;20181;-62
2024/01/11 03:24:39;;;;;;;;;;;;;;;3.16;47.64;103477.81;5112537;28;20304;-63
2024/01/11 03:27:05;;;;;;;;;;;;;;;3.17;47.99;103475.03;5112814;28;19935;-62
2024/01/11 03:29:30;;;;;;;;;;;;;;;3.11;48.52;103485.25;5112893;28;19912;-62
2024/01/11 03:31:56;;;;;;;;;;;;;;;3.05;48.69;103491.00;5104183;28;20264;-62
2024/01/11 03:34:21;;;;;;;;;;;;;;;3.04;49.21;103486.66;5092059;28;19924;-61
2024/01/11 03:36:46;;;;;;;;;;;;;;;3.13;48.10;103485.97;5092284;28;20329;-69
2024/01/11 03:39:11;;;;;;;;;;;;;;;3.13;48.23;103493.94;5092449;28;20365;-69
2024/01/11 03:41:36;;;;;;;;;;;;;;;2.97;49.10;103488.09;5092232;28;19919;-70
2024/01/11 03:44:02;;;;;;;;;;;;;;;3.11;48.50;103478.13;5091600;28;20364;-69
2024/01/11 03:46:27;;;;;;;;;;;;;;;3.13;48.26;103480.66;5092005;28;19921;-69
2024/01/11 03:48:56;;;;;;;;;;;;;;;3.10;48.07;103492.38;5092110;28;19993;-70
2024/01/11 03:51:22;;;;;;;;;;;;;;;3.05;48.61;103493.66;5103531;28;19915;-69
2024/01/11 03:53:47;;;;;;;;;;;;;;;3.01;48.40;103502.81;5112354;28;20371;-69
2024/01/11 03:56:12;;;;;;;;;;;;;;;3.01;49.05;103513.44;5111896;28;19915;-68
2024/01/11 03:58:39;;;;;;;;;;;;;;;2.91;49.53;103526.53;5111278;28;19991;-68
2024/01/11 04:01:04;;;;;;;;;;;;;;;2.54;50.75;103527.44;5111846;28;20323;-68
2024/01/11 04:03:29;;;;;;;;;;;;;;;2.88;49.58;103528.56;5112143;28;19916;-69
2024/01/11 04:05:55;;;;;;;;;;;;;;;2.98;49.66;103518.97;5111812;28;20020;-69
2024/01/11 04:08:20;;;;;;;;;;;;;;;3.11;48.18;103515.31;5111882;28;19968;-69
2024/01/11 04:10:45;;;;;;;;;;;;;;;3.11;48.27;103517.97;5094189;28;19930;-69
2024/01/11 04:13:11;;;;;;;;;;;;;;;3.10;48.63;103520.75;5112241;28;20303;-69
2024/01/11 04:15:36;;;;;;;;;;;;;;;2.75;50.18;103525.94;5111816;28;19911;-69
2024/01/11 04:18:01;;;;;;;;;;;;;;;2.72;49.47;103535.91;5111630;28;19966;-70
2024/01/11 04:20:27;;;;;;;;;;;;;;;2.84;49.56;103527.06;5111618;28;19996;-69
2024/01/11 04:22:52;;;;;;;;;;;;;;;2.93;48.71;103521.13;5112249;28;19915;-69
2024/01/11 04:25:17;;;;;;;;;;;;;;;2.99;47.96;103515.38;5111466;28;20361;-70
2024/01/11 04:27:44;;;;;;;;;;;;;;;2.91;48.42;103521.22;5110273;28;20007;-70
2024/01/11 04:30:09;;;;;;;;;;;;;;;2.96;48.27;103512.94;5111498;28;19947;-69
2024/01/11 04:32:34;;;;;;;;;;;;;;;2.87;49.24;103518.91;5096597;28;20376;-70
2024/01/11 04:35:00;;;;;;;;;;;;;;;2.90;49.00;103516.03;5091432;28;19923;-68
2024/01/11 04:37:25;;;;;;;;;;;;;;;2.90;49.12;103518.69;5091166;28;19938;-70
2024/01/11 04:39:50;;;;;;;;;;;;;;;2.67;48.99;103518.50;5091085;28;20552;-68
2024/01/11 04:42:15;;;;;;;;;;;;;;;2.90;49.08;103508.91;5090992;28;19961;-69
2024/01/11 04:44:40;;;;;;;;;;;;;;;2.85;49.37;103500.41;5090929;28;19919;-69
2024/01/11 04:47:06;;;;;;;;;;;;;;;2.90;48.85;103492.97;5091461;28;19914;-69
2024/01/11 04:49:31;;;;;;;;;;;;;;;2.96;48.91;103484.56;5090929;28;20375;-70
2024/01/11 04:51:56;;;;;;;;;;;;;;;2.90;48.71;103485.00;5099433;28;19999;-68
2024/01/11 04:54:22;;;;;;;;;;;;;;;2.85;48.77;103476.50;5110768;28;19918;-68
2024/01/11 04:56:47;;;;;;;;;;;;;;;2.77;49.00;103484.22;5111015;28;20420;-69
2024/01/11 04:59:12;;;;;;;;;;;;;;;2.82;48.52;103482.06;5091992;28;19955;-68
2024/01/11 05:01:37;;;;;;;;;;;;;;;2.88;47.63;103460.38;5108573;28;19935;-69
2024/01/11 05:04:03;;;;;;;;;;;;;;;2.54;49.99;103466.41;5110296;28;19916;-69
2024/01/11 05:06:28;;;;;;;;;;;;;;;2.76;49.24;103478.97;5110391;28;19967;-68
2024/01/11 05:08:53;;;;;;;;;;;;;;;2.67;48.95;103468.06;5110342;28;20458;-68
2024/01/11 05:11:19;;;;;;;;;;;;;;;2.75;48.69;103475.50;5110216;28;19922;-68
2024/01/11 05:13:47;;;;;;;;;;;;;;;2.78;49.11;103477.06;5110725;28;19912;-71
2024/01/11 05:16:31;;;;;;;;;;;;;;;2.71;48.55;103492.59;5110337;28;19916;-69
2024/01/11 05:18:56;;;;;;;;;;;;;;;2.61;49.45;103497.69;5110691;28;19911;-69
2024/01/11 05:21:22;;;;;;;;;;;;;;;2.67;48.78;103480.50;5110533;28;20019;-68
2024/01/11 05:23:48;;;;;;;;;;;;;;;2.62;49.53;103485.28;5110435;28;19955;-70
2024/01/11 05:26:14;;;;;;;;;;;;;;;2.73;48.52;103484.53;5110406;28;20374;-68
2024/01/11 05:28:40;;;;;;;;;;;;;;;2.77;48.18;103501.94;5110829;28;20085;-70
2024/01/11 05:31:15;;;;;;;;;;;;;;;2.58;48.87;103511.19;5110286;28;19912;-69
2024/01/11 05:33:41;;;;;;;;;;;;;;;2.45;50.26;103515.69;5110085;28;19924;-70
2024/01/11 05:36:06;;;;;;;;;;;;;;;2.72;49.62;103515.53;5110206;28;20337;-68
2024/01/11 05:38:32;;;;;;;;;;;;;;;2.62;49.53;103523.28;5109885;28;19919;-69
2024/01/11 05:40:57;;;;;;;;;;;;;;;2.76;49.45;103527.63;5110755;28;19955;-69
2024/01/11 05:43:23;;;;;;;;;;;;;;;2.74;49.08;103534.00;5109839;28;20430;-68
2024/01/11 05:45:48;;;;;;;;;;;;;;;2.47;50.18;103535.00;5110163;28;19912;-69
2024/01/11 05:48:13;;;;;;;;;;;;;;;2.73;49.75;103541.13;5100718;28;20394;-70
2024/01/11 05:50:39;;;;;;;;;;;;;;;2.23;50.61;103544.63;5089741;28;19966;-70
2024/01/11 05:53:04;;;;;;;;;;;;;;;2.86;50.20;103563.19;5089932;28;19912;-69
2024/01/11 05:55:30;;;;;;;;;;;;;;;2.74;50.00;103556.09;5089631;28;19916;-70
2024/01/11 05:57:55;;;;;;;;;;;;;;;2.58;50.78;103569.59;5089371;28;20383;-69
2024/01/11 06:00:20;;;;;;;;;;;;;;;2.50;50.99;103571.91;5088901;28;20460;-69
2024/01/11 06:02:46;;;;;;;;;;;;;;;2.53;51.86;103585.00;5105820;28;19916;-70
2024/01/11 06:05:12;;;;;;;;;;;;;;;1.87;53.88;103596.66;5109439;28;20337;-69
2024/01/11 06:07:38;;;;;;;;;;;;;;;1.91;53.31;103585.72;5088745;28;19912;-71
2024/01/11 06:10:05;;;;;;;;;;;;;;;2.28;52.91;103574.34;5109113;28;19945;-69
2024/01/11 06:12:31;;;;;;;;;;;;;;;1.85;54.40;103580.81;5107922;28;20340;-70
2024/01/11 06:14:56;;;;;;;;;;;;;;;2.51;52.64;103573.63;5108956;28;19912;-69
2024/01/11 06:17:21;;;;;;;;;;;;;;;2.71;51.61;103574.03;5108224;28;19915;-69
2024/01/11 06:19:46;;;;;;;;;;;;;;;2.63;51.34;103572.75;5109255;28;19915;-69
2024/01/11 06:22:12;;;;;;;;;;;;;;;3.11;49.87;103570.25;5109186;28;19965;-70
2024/01/11 06:24:37;;;;;;;;;;;;;;;3.13;49.20;103568.34;5108316;28;20398;-70
2024/01/11 06:27:02;;;;;;;;;;;;;;;3.14;49.07;103567.38;5109520;28;20294;-69
2024/01/11 06:29:28;;;;;;;;;;;;;;;3.21;48.40;103563.31;5109740;28;19919;-70
2024/01/11 06:31:53;;;;;;;;;;;;;;;3.20;49.34;103577.56;5110292;28;19919;-62
2024/01/11 06:34:18;;;;;;;;;;;;;;;3.13;49.18;103563.88;5109075;28;19927;-63
2024/01/11 06:36:44;;;;;;;;;;;;;;;3.17;48.97;103552.06;5108914;28;19934;-62
2024/01/11 06:39:10;;;;;;;;;;;;;;;3.17;48.90;103557.38;5109029;28;19973;-61
2024/01/11 06:41:35;;;;;;;;;;;;;;;3.13;48.74;103552.41;5109640;28;19923;-62
2024/01/11 06:44:00;;;;;;;;;;;;;;;2.91;48.76;103550.44;5109487;28;20194;-63
2024/01/11 06:46:25;;;;;;;;;;;;;;;2.88;48.88;103553.31;5109502;28;19912;-61
2024/01/11 06:48:50;;;;;;;;;;;;;;;2.97;48.84;103557.13;5109378;28;20145;-62
2024/01/11 06:51:16;;;;;;;;;;;;;;;2.90;48.80;103554.06;5109281;28;19937;-61
2024/01/11 06:53:41;;;;;;;;;;;;;;;2.93;48.77;103547.69;5109184;28;20334;-62
2024/01/11 06:56:16;;;;;;;;;;;;;;;3.06;48.76;103551.16;5109515;28;19999;-62
2024/01/11 06:58:41;;;;;;;;;;;;;;;2.91;48.88;103545.13;5107409;28;19951;-61
2024/01/11 07:01:06;;;;;;;;;;;;;;;3.00;49.15;103548.94;5108643;28;19943;-62
2024/01/11 07:03:31;;;;;;;;;;;;;;;2.89;49.11;103554.16;5108941;28;20275;-63
2024/01/11 07:05:56;;;;;;;;;;;;;;;2.84;48.86;103565.09;5108551;28;20333;-62
2024/01/11 07:08:22;;;;;;;;;;;;;;;2.68;50.67;103557.38;5109203;28;20366;-63
2024/01/11 07:10:47;;;;;;;;;;;;;;;2.87;49.74;103559.56;5110029;28;19907;-70
2024/01/11 07:13:14;;;;;;;;;;;;;;;2.49;50.81;103556.09;5091018;28;19919;-70
2024/01/11 07:15:40;;;;;;;;;;;;;;;2.43;52.12;103569.81;5109374;28;19916;-69
2024/01/11 07:18:05;;;;;;;;;;;;;;;2.39;51.67;103563.00;5109312;28;20002;-70
2024/01/11 07:20:30;;;;;;;;;;;;;;;2.78;51.01;103564.69;5112106;28;19916;-70
2024/01/11 07:22:56;;;;;;;;;;;;;;;1.53;54.61;103564.38;5113038;28;19919;-70
2024/01/11 07:25:21;;;;;;;;;;;;;;;2.34;52.66;103558.00;5112557;28;19924;-70
2024/01/11 07:27:46;;;;;;;;;;;;;;;2.92;51.64;103552.13;5112886;28;19993;-70
2024/01/11 07:30:11;;;;;;;;;;;;;;;2.62;53.07;103549.84;5112484;28;19935;-70
2024/01/11 07:32:37;;;;;;;;;;;;;;;2.98;53.54;103574.75;5112437;28;19915;-70
2024/01/11 07:35:02;;;;;;;;;;;;;;;3.55;52.36;103570.53;5112545;28;20286;-70
2024/01/11 07:37:27;;;;;;;;;;;;;;;3.32;52.26;103566.06;5112144;28;19923;-70
2024/01/11 07:39:53;;;;;;;;;;;;;;;4.04;52.18;103557.09;5112388;28;20391;-69
2024/01/11 07:42:19;;;;;;;;;;;;;;;4.12;51.97;103550.22;5112484;28;19923;-70
2024/01/11 07:44:44;;;;;;;;;;;;;;;4.21;51.65;103549.50;5093652;28;19912;-71
2024/01/11 07:47:09;;;;;;;;;;;;;;;4.27;51.98;103553.50;5112647;28;20036;-69
2024/01/11 07:49:34;;;;;;;;;;;;;;;4.64;50.99;103560.34;5092316;28;19911;-70
2024/01/11 07:52:00;;;;;;;;;;;;;;;4.60;51.40;103560.72;5091464;28;20447;-70
2024/01/11 07:54:25;;;;;;;;;;;;;;;4.54;52.08;103564.69;5091418;28;19999;-69
2024/01/11 07:56:50;;;;;;;;;;;;;;;4.68;51.88;103561.78;5091292;28;19978;-70
2024/01/11 07:59:15;;;;;;;;;;;;;;;4.85;51.70;103574.66;5091819;28;20279;-70
2024/01/11 08:01:41;;;;;;;;;;;;;;;4.79;51.51;103579.59;5098667;28;19952;-70
2024/01/11 08:04:06;;;;;;;;;;;;;;;4.75;52.06;103588.81;5112157;28;19939;-70
2024/01/11 08:06:32;;;;;;;;;;;;;;;4.95;51.42;103596.91;5111963;28;19922;-70
2024/01/11 08:08:57;;;;;;;;;;;;;;;5.08;52.10;103594.13;5112030;28;19916;-70
2024/01/11 08:11:22;;;;;;;;;;;;;;;5.08;51.75;103607.47;5112017;28;19919;-70
2024/01/11 08:13:47;;;;;;;;;;;;;;;5.23;51.29;103609.75;5112747;28;19911;-70
2024/01/11 08:16:17;;;;;;;;;;;;;;;5.20;52.03;103593.16;5100907;28;19926;-70
2024/01/11 08:18:43;;;;;;;;;;;;;;;5.31;51.83;103599.31;5091451;28;19916;-70
2024/01/11 08:21:09;;;;;;;;;;;;;;;5.18;52.70;103598.63;5104497;28;19933;-70
2024/01/11 08:23:34;;;;;;;;;;;;;;;5.27;52.08;103597.88;5111481;28;19923;-71
2024/01/11 08:26:00;;;;;;;;;;;;;;;5.33;52.25;103591.19;5112197;28;19908;-71
2024/01/11 08:28:25;;;;;;;;;;;;;;;5.34;52.49;103579.56;5111718;28;20295;-71
2024/01/11 08:30:50;;;;;;;;;;;;;;;5.38;53.34;103580.16;5111378;28;20275;-70
2024/01/11 08:33:15;;;;;;;;;;;;;;;5.24;52.47;103575.94;5111650;28;19923;-62
2024/01/11 08:35:41;;;;;;;;;;;;;;;5.43;52.18;103570.81;5111817;28;20044;-62
2024/01/11 08:38:06;;;;;;;;;;;;;;;5.62;52.68;103572.84;5111323;28;19918;-63
2024/01/11 08:40:32;;;;;;;;;;;;;;;5.53;52.67;103576.25;5093012;28;19926;-62
2024/01/11 08:42:58;;;;;;;;;;;;;;;5.53;52.87;103587.75;5111241;28;19916;-62
2024/01/11 08:45:23;;;;;;;;;;;;;;;5.67;52.46;103597.31;5111353;28;19919;-63
2024/01/11 08:47:48;;;;;;;;;;;;;;;5.83;52.11;103592.41;5105602;28;19922;-63
2024/01/11 08:50:14;;;;;;;;;;;;;;;5.90;52.09;103594.47;5090818;28;20002;-61
2024/01/11 08:52:39;;;;;;;;;;;;;;;5.77;52.90;103601.75;5090973;28;19908;-61
2024/01/11 08:55:05;;;;;;;;;;;;;;;5.92;52.53;103594.31;5090713;28;19919;-62
2024/01/11 08:57:30;;;;;;;;;;;;;;;6.05;51.67;103593.19;5094066;28;20422;-63
2024/01/11 08:59:56;;;;;;;;;;;;;;;6.17;52.13;103599.34;5111041;28;20682;-62
2024/01/11 09:02:21;;;;;;;;;;;;;;;6.10;52.37;103601.66;5110390;28;19916;-61
2024/01/11 09:04:47;;;;;;;;;;;;;;;6.23;52.46;103591.63;5111286;28;19952;-62
2024/01/11 09:07:12;;;;;;;;;;;;;;;6.38;51.87;103583.31;5110608;28;19951;-61
2024/01/11 09:09:38;;;;;;;;;;;;;;;6.64;51.23;103577.44;5110743;28;19998;-61
2024/01/11 09:12:03;;;;;;;;;;;;;;;6.48;51.62;103586.88;5110948;28;19935;-62
2024/01/11 09:14:28;;;;;;;;;;;;;;;6.43;51.85;103591.78;5110981;28;20011;-71
2024/01/11 09:16:54;;;;;;;;;;;;;;;6.67;51.46;103585.16;5103490;28;19915;-71
2024/01/11 09:19:20;;;;;;;;;;;;;;;6.69;50.69;103587.69;5110798;28;19927;-70
2024/01/11 09:21:45;;;;;;;;;;;;;;;7.02;50.74;103598.97;5110221;28;19915;-70
2024/01/11 09:24:10;;;;;;;;;;;;;;;6.91;51.10;103599.09;5094294;28;20372;-70
2024/01/11 09:26:36;;;;;;;;;;;;;;;7.02;50.64;103612.34;5089933;28;19916;-70
2024/01/11 09:29:01;;;;;;;;;;;;;;;6.92;51.32;103614.13;5091004;28;19955;-71
2024/01/11 09:31:26;;;;;;;;;;;;;;;7.18;50.93;103601.16;5090140;28;20295;-69
2024/01/11 09:33:52;;;;;;;;;;;;;;;7.30;50.70;103602.75;5089775;28;20197;-70
2024/01/11 09:36:18;;;;;;;;;;;;;;;7.16;51.25;103602.25;5090133;28;19916;-70
2024/01/11 09:38:43;;;;;;;;;;;;;;;6.92;51.59;103607.94;5089835;28;19919;-70
2024/01/11 09:41:09;;;;;;;;;;;;;;;7.28;51.17;103601.16;5089187;28;19937;-71
2024/01/11 09:43:35;;;;;;;;;;;;;;;7.04;51.03;103604.19;5090323;28;20006;-69
2024/01/11 09:46:05;;;;;;;;;;;;;;;7.39;50.76;103611.78;5090293;28;20336;-69
2024/01/11 09:48:32;;;;;;;;;;;;;;;7.39;50.92;103607.25;5101314;28;19911;-70
2024/01/11 09:50:58;;;;;;;;;;;;;;;7.59;50.35;103621.53;5110391;28;19915;-63
2024/01/11 09:53:25;;;;;;;;;;;;;;;7.55;50.37;103623.63;5090933;28;19950;-71
2024/01/11 09:55:51;;;;;;;;;;;;;;;7.66;50.32;103617.34;5090292;28;19939;-70
2024/01/11 09:58:17;;;;;;;;;;;;;;;7.57;50.61;103627.03;5089474;28;20347;-70
2024/01/11 10:00:43;;;;;;;;;;;;;;;7.69;50.55;103614.38;5089875;28;19982;-70
2024/01/11 10:03:09;;;;;;;;;;;;;;;7.81;50.27;103616.78;5108814;28;19951;-71
2024/01/11 10:05:35;;;;;;;;;;;;;;;7.74;50.64;103612.13;5110171;28;19955;-70
2024/01/11 10:08:00;;;;;;;;;;;;;;;7.48;51.65;103624.31;5110623;28;19907;-71
2024/01/11 10:10:27;;;;;;;;;;;;;;;7.81;50.74;103626.66;5109904;28;19941;-71
2024/01/11 10:12:52;;;;;;;;;;;;;;;7.66;51.03;103642.28;5109870;28;19916;-71
2024/01/11 10:15:17;;;;;;;;;;;;;;;7.75;50.75;103646.78;5107216;28;19912;-71
2024/01/11 10:17:46;;;;;;;;;;;;;;;7.42;51.92;103648.94;5105400;28;20303;-71
2024/01/11 10:20:15;;;;;;;;;;;;;;;7.71;52.13;103648.03;5110447;28;20346;-70
2024/01/11 10:22:43;;;;;;;;;;;;;;;7.26;52.90;103652.13;5110229;28;20006;-71
2024/01/11 10:25:13;;;;;;;;;;;;;;;7.66;52.02;103641.41;5109789;28;19912;-71
2024/01/11 10:27:40;;;;;;;;;;;;;;;8.06;50.89;103647.50;5109771;28;19998;-70
2024/01/11 10:30:07;;;;;;;;;;;;;;;8.25;50.85;103644.03;5109911;28;19918;-71
2024/01/11 10:32:34;;;;;;;;;;;;;;;7.50;52.41;103643.75;5091281;28;19923;-69
2024/01/11 10:35:00;;;;;;;;;;;;;;;8.13;51.53;103647.81;5110054;28;19920;-71
2024/01/11 10:37:27;;;;;;;;;;;;;;;8.32;50.62;103645.16;5109485;28;19938;-71
2024/01/11 10:39:53;;;;;;;;;;;;;;;8.33;50.74;103636.16;5109533;28;19916;-71
2024/01/11 10:42:23;;;;;;;;;;;;;;;8.17;51.48;103633.16;5109607;28;19923;-70
2024/01/11 10:44:52;;;;;;;;;;;;;;;7.80;53.08;103631.16;5109900;28;20029;-71
2024/01/11 10:47:19;;;;;;;;;;;;;;;7.77;53.01;103623.41;5109442;28;19907;-70
2024/01/11 10:49:46;;;;;;;;;;;;;;;7.49;53.97;103626.84;5110071;28;19904;-72
2024/01/11 10:52:12;;;;;;;;;;;;;;;7.41;54.81;103616.00;5110264;28;20283;-71
2024/01/11 10:54:39;;;;;;;;;;;;;;;7.31;55.38;103617.78;5095202;28;19916;-71
2024/01/11 10:57:05;;;;;;;;;;;;;;;8.04;53.30;103621.88;5113395;28;19911;-70
2024/01/11 10:59:31;;;;;;;;;;;;;;;8.28;52.69;103620.50;5113352;28;19912;-70
2024/01/11 11:01:58;;;;;;;;;;;;;;;8.52;51.76;103622.72;5113411;28;19908;-71
2024/01/11 11:04:24;;;;;;;;;;;;;;;7.99;53.20;103624.97;5113661;28;19923;-71
2024/01/11 11:06:50;;;;;;;;;;;;;;;8.62;51.82;103621.72;5113533;28;20298;-72
2024/01/11 11:09:17;;;;;;;;;;;;;;;7.80;54.54;103623.13;5113341;28;20344;-72
2024/01/11 11:11:42;;;;;;;;;;;;;;;8.27;54.39;103623.31;5113047;28;19960;-71
2024/01/11 11:14:09;;;;;;;;;;;;;;;8.27;54.38;103621.50;5113238;28;19943;-69
2024/01/11 11:16:35;;;;;;;;;;;;;;;8.64;52.54;103621.56;5105912;28;20362;-71
2024/01/11 11:19:00;;;;;;;;;;;;;;;8.58;53.42;103616.78;5113151;28;19998;-71
2024/01/11 11:21:26;;;;;;;;;;;;;;;7.62;55.82;103611.41;5112802;28;19911;-71
2024/01/11 11:23:51;;;;;;;;;;;;;;;7.50;56.22;103600.97;5112302;28;19933;-71
2024/01/11 11:26:20;;;;;;;;;;;;;;;8.15;54.11;103592.28;5112908;28;19911;-71
2024/01/11 11:28:48;;;;;;;;;;;;;;;7.71;55.60;103585.63;5113123;28;20270;-72
2024/01/11 11:31:13;;;;;;;;;;;;;;;8.15;55.62;103581.56;5112745;28;19951;-71
2024/01/11 11:33:40;;;;;;;;;;;;;;;8.93;53.11;103578.56;5112776;28;19955;-70
2024/01/11 11:36:05;;;;;;;;;;;;;;;9.40;51.66;103562.22;5112786;28;19922;-73
2024/01/11 11:38:31;;;;;;;;;;;;;;;9.44;51.48;103577.03;5113233;28;19915;-71
2024/01/11 11:40:57;;;;;;;;;;;;;;;8.20;54.89;103571.25;5113229;28;19947;-72
2024/01/11 11:43:23;;;;;;;;;;;;;;;8.57;54.13;103561.50;5112594;28;20078;-71
2024/01/11 11:45:49;;;;;;;;;;;;;;;8.49;53.54;103561.38;5092337;28;20010;-72
2024/01/11 11:48:33;;;;;;;;;;;;;;;8.52;53.78;103556.56;5112079;28;19916;-72
2024/01/11 11:51:05;;;;;;;;;;;;;;;8.23;55.08;103557.59;5112650;28;19941;-72
2024/01/11 11:53:33;;;;;;;;;;;;;;;9.31;52.18;103560.47;5112301;28;19951;-73
2024/01/11 11:55:58;;;;;;;;;;;;;;;9.59;50.70;103566.63;5113339;28;19907;-73
2024/01/11 11:58:23;;;;;;;;;;;;;;;9.58;50.89;103562.25;5112468;28;19916;-72
2024/01/11 12:00:49;;;;;;;;;;;;;;;9.71;50.74;103566.25;5112578;28;20304;-72
2024/01/11 12:03:14;;;;;;;;;;;;;;;9.87;50.23;103559.34;5091497;28;20398;-73
2024/01/11 12:05:39;;;;;;;;;;;;;;;10.01;49.76;103556.09;5089220;28;19912;-72
2024/01/11 12:08:04;;;;;;;;;;;;;;;10.05;49.40;103554.78;5092526;28;19912;-72
2024/01/11 12:10:30;;;;;;;;;;;;;;;9.65;50.65;103549.91;5091873;28;19931;-74
2024/01/11 12:12:55;;;;;;;;;;;;;;;9.65;50.46;103540.00;5091893;28;19956;-73
2024/01/11 12:15:20;;;;;;;;;;;;;;;10.10;49.90;103539.91;5095329;28;19912;-72
2024/01/11 12:17:45;;;;;;;;;;;;;;;10.25;49.05;103542.88;5096198;28;19995;-72
2024/01/11 12:20:12;;;;;;;;;;;;;;;10.28;49.20;103534.53;5091413;28;19915;-72
2024/01/11 12:22:38;;;;;;;;;;;;;;;9.53;51.33;103537.72;5092208;28;19923;-74
2024/01/11 12:25:04;;;;;;;;;;;;;;;9.83;50.67;103531.94;5091817;28;20003;-73
2024/01/11 12:27:30;;;;;;;;;;;;;;;10.32;49.08;103531.34;5091745;28;19916;-73
2024/01/11 12:29:55;;;;;;;;;;;;;;;10.44;48.93;103519.34;5091452;28;19912;-73
2024/01/11 12:32:22;;;;;;;;;;;;;;;10.00;50.16;103516.81;5091750;28;19908;-73
2024/01/11 12:34:47;;;;;;;;;;;;;;;10.05;49.59;103517.19;5091468;28;19916;-73
2024/01/11 12:37:13;;;;;;;;;;;;;;;10.49;49.29;103510.81;5091043;28;19950;-73